Time;durP1;ratioP1;P1;durP2;ratioP2;P2;SDS_P1;SDS_P2;PMS_P1;PMS_P2;Temp;Humidity;BMP_temperature;BMP_pressure;BME280_temperature;BME280_humidity;BME280_pressure;Samples;Min_cycle;Max_cycle;Signal;HPM_P1;HPM_P2
2022/01/15 00:00:50;;;;;;;589.83;554.47;;;5.70;99.90;;;;;;4390334;32;20162;-64
2022/01/15 00:03:18;;;;;;;610.53;574.97;;;5.70;99.90;;;;;;4391276;32;20171;-64
2022/01/15 00:05:45;;;;;;;597.87;562.60;;;5.70;99.90;;;;;;4390213;32;20140;-67
2022/01/15 00:08:18;;;;;;;578.10;543.67;;;5.70;99.90;;;;;;4390270;32;20175;-64
2022/01/15 00:10:46;;;;;;;599.97;564.10;;;5.70;99.90;;;;;;4391231;32;20566;-64
2022/01/15 00:13:23;;;;;;;569.97;536.20;;;5.80;99.90;;;;;;4390295;32;20144;-65
2022/01/15 00:16:01;;;;;;;598.23;563.43;;;5.70;99.90;;;;;;4390207;32;20200;-66
2022/01/15 00:18:40;;;;;;;571.80;537.60;;;5.70;99.90;;;;;;4390277;32;20158;-66
2022/01/15 00:21:07;;;;;;;582.10;548.03;;;5.60;99.90;;;;;;4393075;32;20190;-64
2022/01/15 00:23:35;;;;;;;576.93;543.43;;;5.60;99.90;;;;;;4393364;32;20148;-65
2022/01/15 00:26:03;;;;;;;583.87;550.33;;;5.60;99.90;;;;;;4393275;32;20187;-67
2022/01/15 00:28:34;;;;;;;573.93;540.27;;;5.60;99.90;;;;;;4393656;32;20136;-68
2022/01/15 00:31:01;;;;;;;585.17;550.73;;;5.50;99.90;;;;;;4378783;32;20167;-67
2022/01/15 00:33:30;;;;;;;572.80;539.27;;;5.60;99.90;;;;;;4377983;32;20482;-66
2022/01/15 00:35:58;;;;;;;593.63;558.47;;;5.60;99.90;;;;;;4383792;32;20179;-66
2022/01/15 00:38:25;;;;;;;595.43;560.43;;;5.60;99.90;;;;;;4393088;32;20528;-66
2022/01/15 00:40:53;;;;;;;591.20;556.20;;;5.60;99.90;;;;;;4391489;32;20207;-65
2022/01/15 00:43:20;;;;;;;574.47;540.23;;;5.60;99.90;;;;;;4380169;32;20575;-66
2022/01/15 00:45:48;;;;;;;590.67;556.43;;;5.60;99.90;;;;;;4393048;32;20156;-67
2022/01/15 00:48:15;;;;;;;579.83;545.93;;;5.50;99.90;;;;;;4384135;32;20145;-68
2022/01/15 00:50:42;;;;;;;567.80;534.13;;;5.50;99.90;;;;;;4393567;32;20156;-67
2022/01/15 00:53:12;;;;;;;573.50;539.80;;;5.40;99.90;;;;;;4393181;32;20171;-66
2022/01/15 00:55:43;;;;;;;584.37;550.33;;;5.40;99.90;;;;;;4394078;32;20169;-65
2022/01/15 00:58:13;;;;;;;570.50;537.10;;;5.40;99.90;;;;;;4392431;32;20148;-64
2022/01/15 01:00:40;;;;;;;575.17;541.57;;;5.30;99.90;;;;;;4392753;32;20139;-66
2022/01/15 01:03:07;;;;;;;592.37;558.00;;;5.40;99.90;;;;;;4392659;32;20167;-65
2022/01/15 01:05:34;;;;;;;574.80;541.07;;;5.40;99.90;;;;;;4392718;32;20163;-62
2022/01/15 01:08:01;;;;;;;588.00;553.03;;;5.40;99.90;;;;;;4392843;32;20148;-64
2022/01/15 01:10:48;;;;;;;577.93;543.83;;;5.40;99.90;;;;;;4394354;32;20140;-65
2022/01/15 01:22:20;;;;;;;541.80;509.87;;;5.40;99.90;;;;;;4360821;32;20167;-67
2022/01/15 01:24:34;;;;;;;536.30;505.07;;;5.30;99.90;;;;;;4355087;32;20185;-66
2022/01/15 01:27:09;;;;;;;551.57;519.97;;;5.30;99.90;;;;;;4345732;33;20177;-67
2022/01/15 01:29:49;;;;;;;528.13;498.07;;;5.20;99.90;;;;;;4346165;33;20199;-67
2022/01/15 01:32:37;;;;;;;527.13;496.73;;;5.20;99.90;;;;;;4345470;33;20149;-64
2022/01/15 01:35:14;;;;;;;519.03;489.87;;;5.20;99.90;;;;;;4345422;33;20161;-66
2022/01/15 01:37:45;;;;;;;544.93;513.33;;;5.20;99.90;;;;;;4346252;33;20149;-64
2022/01/15 01:40:23;;;;;;;535.90;505.10;;;5.30;99.90;;;;;;4345373;33;20183;-67
2022/01/15 01:43:06;;;;;;;540.50;509.80;;;5.30;99.90;;;;;;4345322;33;20153;-66
2022/01/15 01:45:34;;;;;;;527.00;497.47;;;5.40;99.90;;;;;;4345187;33;20251;-67
2022/01/15 01:48:01;;;;;;;545.83;515.23;;;5.20;99.90;;;;;;4345752;33;20172;-65
2022/01/15 01:50:30;;;;;;;556.83;525.47;;;5.20;99.90;;;;;;4344956;33;20479;-67
2022/01/15 01:52:59;;;;;;;548.40;516.87;;;5.30;99.90;;;;;;4357434;32;20167;-64
2022/01/15 01:55:27;;;;;;;547.53;517.10;;;5.20;99.90;;;;;;4377565;32;20477;-66
2022/01/15 01:57:56;;;;;;;554.30;523.17;;;5.20;99.90;;;;;;4377282;32;20169;-63
2022/01/15 02:00:24;;;;;;;526.40;496.63;;;5.10;99.90;;;;;;4383795;32;20242;-65
2022/01/15 02:02:53;;;;;;;538.07;507.57;;;5.10;99.90;;;;;;4392942;32;20155;-63
2022/01/15 02:05:24;;;;;;;548.73;517.60;;;5.10;99.90;;;;;;4393716;32;20156;-66
2022/01/15 02:07:52;;;;;;;529.80;500.10;;;5.10;99.90;;;;;;4391886;32;20163;-64
2022/01/15 02:10:23;;;;;;;544.77;515.07;;;5.10;99.90;;;;;;4391934;32;20567;-63
2022/01/15 02:12:55;;;;;;;537.53;508.20;;;5.10;99.90;;;;;;4391748;32;20162;-65
2022/01/15 02:15:27;;;;;;;550.57;519.90;;;5.10;99.90;;;;;;4391742;32;20202;-65
2022/01/15 02:18:01;;;;;;;532.93;503.00;;;5.10;99.90;;;;;;4391547;32;20149;-69
2022/01/15 02:20:59;;;;;;;545.97;515.57;;;5.10;99.90;;;;;;4391768;32;20567;-65
2022/01/15 02:23:33;;;;;;;523.37;494.57;;;5.10;99.90;;;;;;4391488;32;20180;-63
2022/01/15 02:26:01;;;;;;;531.90;502.27;;;5.10;99.90;;;;;;4392408;32;20610;-65
2022/01/15 02:28:33;;;;;;;533.03;503.13;;;5.10;99.90;;;;;;4391684;32;20148;-68
2022/01/15 02:31:02;;;;;;;537.23;507.77;;;5.10;99.90;;;;;;4386778;32;20153;-61
2022/01/15 02:33:33;;;;;;;530.13;500.80;;;5.10;99.90;;;;;;4392219;32;20151;-65
2022/01/15 02:36:03;;;;;;;531.73;501.63;;;5.20;99.90;;;;;;4386553;32;20148;-63
2022/01/15 02:38:33;;;;;;;545.83;515.30;;;5.20;99.90;;;;;;4376653;32;20167;-63
2022/01/15 02:41:04;;;;;;;549.87;518.23;;;5.20;99.90;;;;;;4388241;32;20155;-65
2022/01/15 02:43:35;;;;;;;547.73;517.63;;;5.20;99.90;;;;;;4390842;32;20152;-64
2022/01/15 02:46:21;;;;;;;536.60;507.00;;;5.20;99.90;;;;;;4391306;32;20186;-64
2022/01/15 02:48:50;;;;;;;524.13;495.47;;;5.30;99.90;;;;;;4391546;32;20145;-65
2022/01/15 02:51:19;;;;;;;541.53;512.00;;;5.10;99.90;;;;;;4391274;32;20144;-61
2022/01/15 02:53:46;;;;;;;538.33;508.77;;;5.20;99.90;;;;;;4390986;32;20140;-63
2022/01/15 02:56:14;;;;;;;532.43;503.67;;;5.10;99.90;;;;;;4391545;32;20140;-63
2022/01/15 02:58:40;;;;;;;517.80;489.50;;;5.10;99.90;;;;;;4391155;32;20144;-62
2022/01/15 03:01:07;;;;;;;531.07;501.80;;;5.00;99.90;;;;;;4391060;32;20163;-67
2022/01/15 03:03:35;;;;;;;537.77;509.27;;;5.00;99.90;;;;;;4390936;32;20246;-63
2022/01/15 03:06:04;;;;;;;528.07;499.27;;;5.00;99.90;;;;;;4387124;32;20662;-64
2022/01/15 03:08:33;;;;;;;543.23;513.50;;;5.00;99.90;;;;;;4381996;32;20144;-64
2022/01/15 03:11:12;;;;;;;526.00;497.53;;;5.00;99.90;;;;;;4379968;32;20232;-64
2022/01/15 03:13:45;;;;;;;507.23;480.83;;;5.00;99.90;;;;;;4372168;32;20195;-61
2022/01/15 03:16:17;;;;;;;521.90;493.30;;;5.00;99.90;;;;;;4379834;32;20577;-62
2022/01/15 03:21:38;;;;;;;476.73;451.43;;;4.90;99.90;;;;;;4380852;32;20659;-62
2022/01/15 03:24:24;;;;;;;512.50;485.20;;;4.90;99.90;;;;;;4385883;32;20149;-62
2022/01/15 03:30:13;;;;;;;470.27;445.43;;;4.80;99.90;;;;;;4377579;32;20154;-62
2022/01/15 03:32:50;;;;;;;497.90;470.47;;;4.80;99.90;;;;;;4376594;32;20163;-62
2022/01/15 03:35:31;;;;;;;503.60;476.00;;;4.80;99.90;;;;;;4375609;32;20140;-62
2022/01/15 03:38:01;;;;;;;518.30;489.93;;;4.90;99.90;;;;;;4375522;32;20148;-62
2022/01/15 03:40:34;;;;;;;521.50;492.37;;;4.90;99.90;;;;;;4387747;32;20167;-64
2022/01/15 03:43:13;;;;;;;516.63;487.80;;;5.00;99.90;;;;;;4390999;32;20208;-62
2022/01/15 03:45:41;;;;;;;514.63;486.53;;;4.90;99.90;;;;;;4392106;32;20170;-62
2022/01/15 03:48:13;;;;;;;519.90;491.33;;;4.90;99.90;;;;;;4390666;32;20519;-63
2022/01/15 03:50:44;;;;;;;508.70;480.50;;;4.90;99.90;;;;;;4392402;32;20171;-62
2022/01/15 03:53:23;;;;;;;503.77;475.67;;;4.90;99.90;;;;;;4391025;32;20185;-62
2022/01/15 03:56:04;;;;;;;510.17;482.97;;;4.80;99.90;;;;;;4391339;32;20157;-62
2022/01/15 03:58:35;;;;;;;490.13;463.37;;;4.80;99.90;;;;;;4390356;32;20148;-62
2022/01/15 04:01:02;;;;;;;509.37;481.73;;;4.70;99.90;;;;;;4390921;32;20148;-62
2022/01/15 04:03:37;;;;;;;513.63;486.03;;;4.70;99.90;;;;;;4390383;32;20162;-62
2022/01/15 04:06:14;;;;;;;491.80;466.17;;;4.70;99.90;;;;;;4390419;32;20158;-62
2022/01/15 04:08:54;;;;;;;488.03;462.00;;;4.60;99.90;;;;;;4390973;32;20586;-62
2022/01/15 04:11:22;;;;;;;467.60;442.63;;;4.60;99.90;;;;;;4378771;32;20171;-62
2022/01/15 04:14:18;;;;;;;490.87;465.50;;;4.50;99.90;;;;;;4391004;32;20513;-64
2022/01/15 04:16:46;;;;;;;468.37;443.10;;;4.40;99.90;;;;;;4381336;32;20164;-62
2022/01/15 04:19:23;;;;;;;496.40;470.27;;;4.40;99.90;;;;;;4387229;32;20556;-62
2022/01/15 04:21:57;;;;;;;480.63;455.10;;;4.40;99.90;;;;;;4392124;32;20211;-62
2022/01/15 04:24:28;;;;;;;470.23;445.60;;;4.30;99.90;;;;;;4386219;32;20167;-62
2022/01/15 04:27:03;;;;;;;475.03;449.70;;;4.40;99.90;;;;;;4375620;32;20234;-63
2022/01/15 04:29:40;;;;;;;479.43;453.17;;;4.40;99.90;;;;;;4375673;32;20463;-62
2022/01/15 04:32:13;;;;;;;477.83;452.03;;;4.30;99.90;;;;;;4375254;32;20243;-62
2022/01/15 04:34:53;;;;;;;481.57;454.87;;;4.40;99.90;;;;;;4376103;32;20197;-62
2022/01/15 04:37:40;;;;;;;486.53;460.27;;;4.40;99.90;;;;;;4375837;32;20162;-62
2022/01/15 04:40:19;;;;;;;464.27;439.97;;;4.40;99.90;;;;;;4375071;32;20183;-62
2022/01/15 04:42:51;;;;;;;460.03;435.80;;;4.30;99.90;;;;;;4375318;32;20145;-62
2022/01/15 04:45:24;;;;;;;489.80;462.93;;;4.30;99.90;;;;;;4375179;32;20142;-62
2022/01/15 04:47:58;;;;;;;464.27;439.27;;;4.30;99.90;;;;;;4375492;32;20160;-62
2022/01/15 04:50:31;;;;;;;469.70;445.03;;;4.20;99.90;;;;;;4375102;32;20474;-62
2022/01/15 04:52:58;;;;;;;475.87;450.93;;;4.20;99.90;;;;;;4375166;32;20141;-63
2022/01/15 04:55:28;;;;;;;481.47;456.13;;;4.20;99.90;;;;;;4375223;32;20164;-63
2022/01/15 04:57:57;;;;;;;440.17;416.83;;;4.10;99.90;;;;;;4374521;32;20203;-67
2022/01/15 05:00:25;;;;;;;476.23;451.37;;;4.10;99.90;;;;;;4376676;32;20149;-64
2022/01/15 05:02:57;;;;;;;476.83;450.83;;;4.10;99.90;;;;;;4390237;32;20204;-64
2022/01/15 05:05:29;;;;;;;458.17;433.57;;;4.10;99.90;;;;;;4390752;32;20196;-63
2022/01/15 05:08:17;;;;;;;459.47;434.47;;;4.10;99.90;;;;;;4393230;32;20154;-63
2022/01/15 05:10:48;;;;;;;443.57;418.90;;;4.10;99.90;;;;;;4392757;32;20512;-64
2022/01/15 05:13:19;;;;;;;441.00;416.63;;;4.00;99.90;;;;;;4392371;32;20161;-64
2022/01/15 05:15:49;;;;;;;447.97;423.13;;;4.10;99.90;;;;;;4392692;32;20144;-63
2022/01/15 05:18:18;;;;;;;460.50;435.13;;;4.10;99.90;;;;;;4392697;32;20222;-64
2022/01/15 05:20:48;;;;;;;453.10;428.70;;;4.00;99.90;;;;;;4393227;32;20140;-64
2022/01/15 05:23:15;;;;;;;475.47;449.30;;;3.90;99.90;;;;;;4393011;32;20165;-63
2022/01/15 05:25:54;;;;;;;485.50;458.50;;;4.00;99.90;;;;;;4379823;32;20460;-61
2022/01/15 05:28:34;;;;;;;464.30;438.77;;;4.00;99.90;;;;;;4380602;32;20146;-62
2022/01/15 05:31:19;;;;;;;468.03;441.97;;;4.00;99.90;;;;;;4390844;32;20205;-64
2022/01/15 05:34:12;;;;;;;440.47;416.60;;;4.00;99.90;;;;;;4393135;32;20149;-63
2022/01/15 05:36:44;;;;;;;430.23;406.20;;;3.90;99.90;;;;;;4390405;32;20172;-64
2022/01/15 05:39:21;;;;;;;454.00;429.23;;;3.90;99.90;;;;;;4392432;32;20154;-63
2022/01/15 05:42:00;;;;;;;460.87;434.43;;;3.90;99.90;;;;;;4393056;32;20184;-63
2022/01/15 05:44:33;;;;;;;461.17;435.90;;;3.90;99.90;;;;;;4392261;32;20344;-61
2022/01/15 05:47:04;;;;;;;476.47;449.83;;;3.90;99.90;;;;;;4392429;32;20157;-63
2022/01/15 05:49:36;;;;;;;477.33;450.77;;;3.90;99.90;;;;;;4392830;32;20556;-63
2022/01/15 05:52:11;;;;;;;488.80;461.43;;;4.00;99.90;;;;;;4392521;32;20583;-62
2022/01/15 05:54:41;;;;;;;463.43;437.50;;;4.00;99.90;;;;;;4392170;32;20576;-64
2022/01/15 05:57:11;;;;;;;470.60;443.93;;;4.10;99.90;;;;;;4392146;32;20220;-63
2022/01/15 05:59:44;;;;;;;471.73;444.93;;;4.10;99.90;;;;;;4391746;32;20183;-63
2022/01/15 06:02:15;;;;;;;466.30;440.63;;;4.10;99.90;;;;;;4249811;32;4682461;-63
2022/01/15 06:04:42;;;;;;;445.33;420.67;;;4.00;99.90;;;;;;4392314;32;20148;-63
2022/01/15 06:07:19;;;;;;;480.03;453.10;;;4.00;99.90;;;;;;4393799;32;20134;-62
2022/01/15 06:09:47;;;;;;;470.20;444.37;;;4.00;99.90;;;;;;4391684;32;20420;-63
2022/01/15 06:12:16;;;;;;;480.53;454.03;;;4.00;99.90;;;;;;4391882;32;20138;-61
2022/01/15 06:14:53;;;;;;;469.23;443.07;;;3.90;99.90;;;;;;4391883;32;20473;-63
2022/01/15 06:17:34;;;;;;;481.57;454.70;;;4.00;99.90;;;;;;4377980;32;20168;-63
2022/01/15 06:20:08;;;;;;;462.40;437.20;;;4.00;99.90;;;;;;4391768;32;20667;-63
2022/01/15 06:22:37;;;;;;;461.77;435.80;;;4.00;99.90;;;;;;4392821;32;20543;-63
2022/01/15 06:25:33;;;;;;;461.77;436.30;;;3.90;99.90;;;;;;4391641;32;20474;-63
2022/01/15 06:28:06;;;;;;;441.73;417.90;;;3.90;99.90;;;;;;4391742;32;20149;-63
2022/01/15 06:30:37;;;;;;;449.37;424.97;;;3.90;99.90;;;;;;4391322;32;20626;-63
2022/01/15 06:33:04;;;;;;;467.27;442.00;;;3.90;99.90;;;;;;4391643;32;20163;-63
2022/01/15 06:35:34;;;;;;;498.73;471.33;;;3.80;99.90;;;;;;4392256;32;20166;-63
2022/01/15 06:38:02;;;;;;;471.10;445.33;;;3.90;99.90;;;;;;4391421;32;20136;-63
2022/01/15 06:40:35;;;;;;;450.90;426.57;;;3.90;99.90;;;;;;4381099;32;20146;-63
2022/01/15 06:43:02;;;;;;;475.13;448.83;;;3.90;99.90;;;;;;4391486;32;20138;-63
2022/01/15 06:45:37;;;;;;;462.57;437.00;;;3.90;99.90;;;;;;4392309;32;20130;-63
2022/01/15 06:48:22;;;;;;;458.00;432.87;;;3.90;99.90;;;;;;4391322;32;20139;-63
2022/01/15 06:50:54;;;;;;;440.87;416.80;;;3.90;99.90;;;;;;4391932;32;20156;-63
2022/01/15 06:53:21;;;;;;;470.57;445.50;;;3.90;99.90;;;;;;4391124;32;20132;-62
2022/01/15 06:55:56;;;;;;;486.10;460.20;;;3.90;99.90;;;;;;4391374;32;20564;-63
2022/01/15 06:58:37;;;;;;;462.87;438.17;;;3.90;99.90;;;;;;4390967;32;20153;-63
2022/01/15 07:01:15;;;;;;;445.03;421.47;;;4.00;99.90;;;;;;4387612;32;20159;-63
2022/01/15 07:03:47;;;;;;;449.07;425.43;;;3.90;99.90;;;;;;4382331;32;20178;-64
2022/01/15 07:06:28;;;;;;;453.03;428.40;;;3.90;99.90;;;;;;4379994;32;20137;-63
2022/01/15 07:08:57;;;;;;;466.47;442.07;;;3.90;99.90;;;;;;4381970;32;20149;-64
2022/01/15 07:11:35;;;;;;;461.10;435.37;;;3.90;99.90;;;;;;4380622;32;20568;-63
2022/01/15 07:14:07;;;;;;;448.50;424.37;;;4.00;99.90;;;;;;4383603;32;20229;-64
2022/01/15 07:16:37;;;;;;;474.33;448.83;;;4.00;99.90;;;;;;4385339;32;20164;-65
2022/01/15 07:19:21;;;;;;;461.57;437.63;;;4.00;99.90;;;;;;4383169;32;20169;-65
2022/01/15 07:21:51;;;;;;;464.27;439.87;;;4.10;99.90;;;;;;4378801;32;20202;-66
2022/01/15 07:24:31;;;;;;;465.43;439.40;;;4.10;99.90;;;;;;4380691;32;20483;-66
2022/01/15 07:27:01;;;;;;;468.17;442.50;;;4.10;99.90;;;;;;4385245;32;20147;-63
2022/01/15 07:29:44;;;;;;;465.77;440.87;;;4.10;99.90;;;;;;4387902;32;20144;-65
2022/01/15 07:32:17;;;;;;;457.40;432.83;;;4.00;99.90;;;;;;4382271;32;20155;-66
2022/01/15 07:35:00;;;;;;;464.23;439.40;;;4.00;99.90;;;;;;4381467;32;20157;-62
2022/01/15 07:37:35;;;;;;;467.50;441.80;;;4.00;99.90;;;;;;4380125;32;20624;-63
2022/01/15 07:40:10;;;;;;;451.27;427.23;;;4.00;99.90;;;;;;4386549;32;20579;-66
2022/01/15 07:42:54;;;;;;;452.70;428.67;;;4.00;99.90;;;;;;4381329;32;20148;-66
2022/01/15 07:45:34;;;;;;;454.07;429.47;;;4.00;99.90;;;;;;4382835;32;20193;-64
2022/01/15 07:54:47;;;;;;;405.70;383.40;;;4.10;99.90;;;;;;4384201;32;20154;-67
2022/01/15 07:57:14;;;;;;;467.20;442.30;;;4.10;99.90;;;;;;4381608;32;20143;-64
2022/01/15 07:59:44;;;;;;;460.63;435.40;;;4.10;99.90;;;;;;4383107;32;20615;-63
2022/01/15 08:02:26;;;;;;;471.80;445.97;;;4.10;99.90;;;;;;4382534;32;20265;-63
2022/01/15 08:04:53;;;;;;;458.10;433.43;;;4.10;99.90;;;;;;4378575;32;20193;-63
2022/01/15 08:07:28;;;;;;;462.17;437.10;;;4.10;99.90;;;;;;4386008;32;20197;-64
2022/01/15 08:09:56;;;;;;;458.37;433.20;;;4.20;99.90;;;;;;4380755;32;20581;-63
2022/01/15 08:12:23;;;;;;;472.87;447.30;;;4.10;99.90;;;;;;4384322;32;20227;-64
2022/01/15 08:14:51;;;;;;;482.87;456.07;;;4.20;99.90;;;;;;4382904;32;20148;-67
2022/01/15 08:17:18;;;;;;;484.17;458.07;;;4.20;99.90;;;;;;4383117;32;20202;-63
2022/01/15 08:19:46;;;;;;;494.47;467.23;;;4.20;99.90;;;;;;4381585;32;20200;-63
2022/01/15 08:22:13;;;;;;;510.07;482.00;;;4.30;99.90;;;;;;4380499;32;20151;-66
2022/01/15 08:24:42;;;;;;;490.93;463.73;;;4.40;99.90;;;;;;4381930;32;20691;-63
2022/01/15 08:27:17;;;;;;;507.70;478.90;;;4.40;99.90;;;;;;4381031;32;20179;-63
2022/01/15 08:29:44;;;;;;;506.97;478.80;;;4.40;99.90;;;;;;4382316;32;20478;-64
2022/01/15 08:32:10;;;;;;;494.70;466.50;;;4.50;99.90;;;;;;4383059;32;20164;-66
2022/01/15 08:34:38;;;;;;;490.27;463.43;;;4.50;99.90;;;;;;4382932;32;20599;-63
2022/01/15 08:37:06;;;;;;;499.17;471.87;;;4.50;99.90;;;;;;4378685;32;20214;-67
2022/01/15 08:39:35;;;;;;;495.83;468.07;;;4.50;99.90;;;;;;4379460;32;20152;-63
2022/01/15 08:42:01;;;;;;;527.47;498.30;;;4.50;99.90;;;;;;4378475;32;20568;-63
2022/01/15 08:44:29;;;;;;;504.20;477.37;;;4.50;99.90;;;;;;4376899;32;20239;-63
2022/01/15 08:47:01;;;;;;;508.80;480.13;;;4.60;99.90;;;;;;4379360;32;20203;-63
2022/01/15 08:49:28;;;;;;;474.87;448.43;;;4.60;99.90;;;;;;4381706;32;20149;-64
2022/01/15 08:51:58;;;;;;;468.73;442.73;;;4.50;99.90;;;;;;4387402;32;20250;-63
2022/01/15 08:54:25;;;;;;;476.27;449.93;;;4.50;99.90;;;;;;4385078;32;20148;-62
2022/01/15 08:56:55;;;;;;;477.67;450.57;;;4.50;99.90;;;;;;4386607;32;20171;-62
2022/01/15 08:59:26;;;;;;;480.13;453.07;;;4.50;99.90;;;;;;4386221;32;20164;-63
2022/01/15 09:01:55;;;;;;;462.67;436.10;;;4.50;99.90;;;;;;4386508;32;20514;-62
2022/01/15 09:04:22;;;;;;;480.00;453.10;;;4.40;99.90;;;;;;4384746;32;20152;-61
2022/01/15 09:06:52;;;;;;;466.07;440.10;;;4.40;99.90;;;;;;4388271;32;20171;-63
2022/01/15 09:09:21;;;;;;;483.20;456.47;;;4.40;99.90;;;;;;4391178;32;20145;-60
2022/01/15 09:11:51;;;;;;;491.73;464.63;;;4.40;99.90;;;;;;4390900;32;20152;-63
2022/01/15 09:14:18;;;;;;;489.63;462.47;;;4.40;99.90;;;;;;4385477;32;20229;-63
2022/01/15 09:16:48;;;;;;;471.67;445.77;;;4.40;99.90;;;;;;4389053;32;20153;-64
2022/01/15 09:19:16;;;;;;;480.40;453.40;;;4.40;99.90;;;;;;4379770;32;20164;-62
2022/01/15 09:21:43;;;;;;;471.40;445.17;;;4.50;99.90;;;;;;4386134;32;20214;-63
2022/01/15 09:24:13;;;;;;;497.33;470.17;;;4.40;99.90;;;;;;4384937;32;20167;-66
2022/01/15 09:27:01;;;;;;;474.63;448.00;;;4.40;99.90;;;;;;4382178;32;20144;-67
2022/01/15 09:32:14;;;;;;;464.17;438.00;;;4.50;99.90;;;;;;4376863;32;20164;-62
2022/01/15 09:34:45;;;;;;;493.77;466.17;;;4.50;99.90;;;;;;4385935;32;20267;-62
2022/01/15 09:37:12;;;;;;;491.93;464.60;;;4.50;99.90;;;;;;4382798;32;20580;-63
2022/01/15 09:39:42;;;;;;;499.50;471.37;;;4.50;99.90;;;;;;4383153;32;20152;-66
2022/01/15 09:42:16;;;;;;;521.40;491.83;;;4.60;99.90;;;;;;4382982;32;20155;-63
2022/01/15 09:44:44;;;;;;;505.20;475.30;;;4.70;99.90;;;;;;4386215;32;20585;-65
2022/01/15 09:47:13;;;;;;;489.67;463.00;;;4.80;99.90;;;;;;4382494;32;20153;-63
2022/01/15 09:49:43;;;;;;;513.57;485.50;;;4.80;99.90;;;;;;4382211;32;20215;-63
2022/01/15 09:52:12;;;;;;;485.87;458.70;;;4.70;99.90;;;;;;4382131;32;20155;-67
2022/01/15 09:54:40;;;;;;;495.50;468.03;;;4.70;99.90;;;;;;4382487;32;20164;-62
2022/01/15 09:57:07;;;;;;;510.87;482.30;;;4.70;99.90;;;;;;4384372;32;20202;-63
2022/01/15 09:59:37;;;;;;;526.87;496.70;;;4.70;99.90;;;;;;4382661;32;20161;-66
2022/01/15 10:02:13;;;;;;;492.70;464.87;;;4.80;99.90;;;;;;4384102;32;20157;-64
2022/01/15 10:04:40;;;;;;;514.83;485.77;;;4.80;99.90;;;;;;4383785;32;20165;-64
2022/01/15 10:07:15;;;;;;;496.43;468.70;;;4.80;99.90;;;;;;4382663;32;20153;-64
2022/01/15 10:09:43;;;;;;;501.43;473.67;;;4.80;99.90;;;;;;4381250;32;20187;-63
2022/01/15 10:12:11;;;;;;;514.37;484.83;;;4.80;99.90;;;;;;4384854;32;20148;-63
2022/01/15 10:14:42;;;;;;;490.33;463.40;;;4.80;99.90;;;;;;4382529;32;20140;-63
2022/01/15 10:17:24;;;;;;;518.73;488.93;;;4.80;99.90;;;;;;4381350;32;20171;-65
2022/01/15 10:19:52;;;;;;;486.17;458.87;;;4.80;99.90;;;;;;4391174;32;20235;-65
2022/01/15 10:22:23;;;;;;;516.90;486.80;;;4.80;99.90;;;;;;4391442;32;20580;-64
2022/01/15 10:24:55;;;;;;;489.37;462.00;;;4.90;99.90;;;;;;4378525;32;20171;-66
2022/01/15 10:27:28;;;;;;;507.70;479.37;;;4.90;99.90;;;;;;4389577;32;20149;-64
2022/01/15 10:30:02;;;;;;;502.60;473.73;;;5.00;99.90;;;;;;4391687;32;20176;-63
2022/01/15 10:32:33;;;;;;;501.47;473.37;;;4.90;99.90;;;;;;4390328;32;20148;-64
2022/01/15 10:35:01;;;;;;;506.50;476.63;;;5.00;99.90;;;;;;4385820;32;20167;-63
2022/01/15 10:37:36;;;;;;;491.63;463.97;;;4.90;99.90;;;;;;4388665;32;20148;-67
2022/01/15 10:40:07;;;;;;;479.87;453.03;;;5.00;99.90;;;;;;4385114;32;20174;-66
2022/01/15 10:42:34;;;;;;;504.17;475.27;;;4.90;99.90;;;;;;4389893;32;20480;-66
2022/01/15 10:45:08;;;;;;;473.20;446.67;;;5.00;99.90;;;;;;4388850;32;20244;-67
2022/01/15 10:47:43;;;;;;;470.73;443.70;;;4.90;99.90;;;;;;4379986;32;20619;-68
2022/01/15 10:50:20;;;;;;;499.43;471.17;;;4.90;99.90;;;;;;4375961;32;20233;-63
2022/01/15 10:52:49;;;;;;;509.10;480.60;;;5.00;99.90;;;;;;4388078;32;20158;-63
2022/01/15 10:55:17;;;;;;;508.43;479.63;;;5.10;99.90;;;;;;4391245;32;20568;-63
2022/01/15 10:57:58;;;;;;;516.07;486.13;;;5.10;99.90;;;;;;4384567;32;20527;-64
2022/01/15 11:00:30;;;;;;;543.23;511.63;;;5.10;99.90;;;;;;4385880;32;20144;-64
2022/01/15 11:02:59;;;;;;;515.47;485.47;;;5.30;99.90;;;;;;4389629;32;20485;-63
2022/01/15 11:05:28;;;;;;;487.83;460.00;;;5.30;99.90;;;;;;4379641;32;20186;-62
2022/01/15 11:08:12;;;;;;;494.27;465.33;;;5.20;99.90;;;;;;4383800;32;20464;-62
2022/01/15 11:10:41;;;;;;;478.60;451.43;;;5.10;99.90;;;;;;4387031;32;20144;-62
2022/01/15 11:13:12;;;;;;;506.33;477.03;;;5.10;99.90;;;;;;4377864;32;20656;-62
2022/01/15 11:15:39;;;;;;;488.23;460.67;;;5.10;99.90;;;;;;4386672;32;20485;-63
2022/01/15 11:18:07;;;;;;;487.20;459.23;;;5.20;99.90;;;;;;4383705;32;20151;-63
2022/01/15 11:20:37;;;;;;;500.80;471.90;;;5.20;99.90;;;;;;4390132;32;20144;-63
2022/01/15 11:23:05;;;;;;;496.37;467.03;;;5.20;99.90;;;;;;4377453;32;20152;-63
2022/01/15 11:25:32;;;;;;;505.93;477.37;;;5.30;99.90;;;;;;4388182;32;20148;-63
2022/01/15 11:28:05;;;;;;;497.13;467.97;;;5.20;99.90;;;;;;4383799;32;20207;-63
2022/01/15 11:30:32;;;;;;;480.50;452.77;;;5.30;99.90;;;;;;4382483;32;20226;-63
2022/01/15 11:33:03;;;;;;;485.90;458.07;;;5.20;99.90;;;;;;4386888;32;20193;-63
2022/01/15 11:35:41;;;;;;;481.17;453.47;;;5.10;99.90;;;;;;4377002;32;20559;-63
2022/01/15 11:38:11;;;;;;;478.63;451.83;;;5.00;99.90;;;;;;4381285;32;20144;-62
2022/01/15 11:40:45;;;;;;;489.03;460.87;;;5.00;99.90;;;;;;4380980;32;20156;-63
2022/01/15 11:43:41;;;;;;;498.23;469.97;;;5.10;99.90;;;;;;4378340;32;20634;-64
2022/01/15 11:46:30;;;;;;;468.33;441.80;;;5.10;99.90;;;;;;4378849;32;20190;-64
2022/01/15 11:49:30;;;;;;;481.77;454.13;;;5.10;99.90;;;;;;4383273;32;20557;-63
2022/01/15 11:51:58;;;;;;;457.60;432.07;;;5.20;99.90;;;;;;4388932;32;20141;-64
2022/01/15 11:54:32;;;;;;;479.67;453.07;;;5.20;99.90;;;;;;4378902;32;20207;-64
2022/01/15 11:57:01;;;;;;;468.17;442.93;;;5.10;99.90;;;;;;4379575;32;20248;-67
2022/01/15 11:59:49;;;;;;;486.17;459.93;;;5.10;99.90;;;;;;4383093;32;20200;-65
2022/01/15 12:02:27;;;;;;;465.80;439.90;;;5.00;99.90;;;;;;4378869;32;20136;-67
2022/01/15 12:04:54;;;;;;;498.40;470.77;;;5.10;99.90;;;;;;4378580;32;20163;-63
2022/01/15 12:07:25;;;;;;;491.43;463.63;;;5.10;99.90;;;;;;4381521;32;20263;-65
2022/01/15 12:09:53;;;;;;;487.37;460.67;;;5.00;99.90;;;;;;4388077;32;20193;-66
2022/01/15 12:12:43;;;;;;;493.13;465.27;;;5.00;99.90;;;;;;4383837;32;20351;-64
2022/01/15 12:15:27;;;;;;;470.90;444.13;;;5.00;99.90;;;;;;4383933;32;21322;-62
2022/01/15 12:17:59;;;;;;;464.77;438.27;;;4.90;99.90;;;;;;4385533;32;20235;-63
2022/01/15 12:20:36;;;;;;;483.73;455.83;;;4.90;99.90;;;;;;4385053;32;20247;-64
2022/01/15 12:23:06;;;;;;;485.63;457.53;;;4.80;99.90;;;;;;4383751;32;20165;-65
2022/01/15 12:25:47;;;;;;;484.20;457.33;;;4.90;99.90;;;;;;4380701;32;20179;-63
2022/01/15 12:28:17;;;;;;;463.60;437.67;;;4.80;99.90;;;;;;4385029;32;20201;-64
2022/01/15 12:31:11;;;;;;;475.13;448.03;;;4.90;99.90;;;;;;4381658;32;20216;-66
2022/01/15 12:33:41;;;;;;;457.30;432.43;;;4.90;99.90;;;;;;4380310;32;20674;-63
2022/01/15 12:36:14;;;;;;;430.90;407.00;;;4.80;99.90;;;;;;4379355;32;20152;-63
2022/01/15 12:38:41;;;;;;;446.03;421.13;;;4.60;99.90;;;;;;4380208;32;20714;-63
2022/01/15 12:47:54;;;;;;;385.50;363.83;;;4.50;99.90;;;;;;4377886;32;20622;-63
2022/01/15 12:50:22;;;;;;;459.43;434.03;;;4.60;99.90;;;;;;4384486;32;20149;-64
2022/01/15 12:52:59;;;;;;;470.83;445.00;;;4.70;99.90;;;;;;4393201;32;20510;-66
2022/01/15 12:55:30;;;;;;;417.40;394.53;;;4.60;99.90;;;;;;4389615;32;20140;-63
2022/01/15 12:57:58;;;;;;;439.43;414.20;;;4.70;99.90;;;;;;4387966;32;20635;-62
2022/01/15 13:00:26;;;;;;;471.20;444.17;;;4.60;99.90;;;;;;4384105;32;20170;-63
2022/01/15 13:02:57;;;;;;;443.30;417.13;;;4.50;99.90;;;;;;4387703;32;20176;-64
2022/01/15 13:05:27;;;;;;;447.40;421.90;;;4.40;99.90;;;;;;4385206;32;20581;-64
2022/01/15 13:07:57;;;;;;;439.77;414.13;;;4.50;99.90;;;;;;4381250;32;20232;-64
2022/01/15 13:10:48;;;;;;;463.67;436.70;;;4.50;99.90;;;;;;4385211;32;20140;-66
2022/01/15 13:13:21;;;;;;;428.03;404.23;;;4.50;99.90;;;;;;4380328;32;20153;-64
2022/01/15 13:16:00;;;;;;;447.00;422.43;;;4.50;99.90;;;;;;4390276;32;20151;-63